sensor_id;sensor_type;location;lat;lon;timestamp;temperature;humidity
2657;DHT22;1338;48.176;11.792;2023-05-29T00:01:23;13.90;99.90
2657;DHT22;1338;48.176;11.792;2023-05-29T00:03:51;14.50;99.90
2657;DHT22;1338;48.176;11.792;2023-05-29T00:06:20;14.10;99.90
2657;DHT22;1338;48.176;11.792;2023-05-29T00:08:48;14.20;99.90
2657;DHT22;1338;48.176;11.792;2023-05-29T00:11:18;13.20;99.90
2657;DHT22;1338;48.176;11.792;2023-05-29T00:13:47;12.60;99.90
2657;DHT22;1338;48.176;11.792;2023-05-29T00:16:15;13.00;99.90
2657;DHT22;1338;48.176;11.792;2023-05-29T00:18:44;12.20;99.90
2657;DHT22;1338;48.176;11.792;2023-05-29T00:21:14;13.00;99.90
2657;DHT22;1338;48.176;11.792;2023-05-29T00:23:42;13.90;99.90
2657;DHT22;1338;48.176;11.792;2023-05-29T00:26:12;14.10;99.90
2657;DHT22;1338;48.176;11.792;2023-05-29T00:28:48;14.00;99.90
2657;DHT22;1338;48.176;11.792;2023-05-29T00:31:17;12.40;99.90
2657;DHT22;1338;48.176;11.792;2023-05-29T00:33:45;11.50;99.90
2657;DHT22;1338;48.176;11.792;2023-05-29T00:36:14;12.80;99.90
2657;DHT22;1338;48.176;11.792;2023-05-29T00:38:43;13.30;99.90
2657;DHT22;1338;48.176;11.792;2023-05-29T00:41:14;13.80;99.90
2657;DHT22;1338;48.176;11.792;2023-05-29T00:43:42;13.60;99.90
2657;DHT22;1338;48.176;11.792;2023-05-29T00:46:13;12.90;99.90
2657;DHT22;1338;48.176;11.792;2023-05-29T00:48:42;13.40;99.90
2657;DHT22;1338;48.176;11.792;2023-05-29T00:51:13;13.80;99.90
2657;DHT22;1338;48.176;11.792;2023-05-29T00:53:43;13.40;99.90
2657;DHT22;1338;48.176;11.792;2023-05-29T00:56:12;13.50;99.90
2657;DHT22;1338;48.176;11.792;2023-05-29T00:58:41;13.60;99.90
2657;DHT22;1338;48.176;11.792;2023-05-29T01:01:11;12.90;99.90
2657;DHT22;1338;48.176;11.792;2023-05-29T01:03:41;12.60;99.90
2657;DHT22;1338;48.176;11.792;2023-05-29T01:06:10;12.30;99.90
2657;DHT22;1338;48.176;11.792;2023-05-29T01:08:38;13.00;99.90
2657;DHT22;1338;48.176;11.792;2023-05-29T01:11:12;13.30;99.90
2657;DHT22;1338;48.176;11.792;2023-05-29T01:13:50;13.00;99.90
2657;DHT22;1338;48.176;11.792;2023-05-29T01:16:24;13.30;99.90
2657;DHT22;1338;48.176;11.792;2023-05-29T01:19:00;13.70;99.90
2657;DHT22;1338;48.176;11.792;2023-05-29T01:21:42;13.70;99.90
2657;DHT22;1338;48.176;11.792;2023-05-29T01:24:26;13.50;99.90
2657;DHT22;1338;48.176;11.792;2023-05-29T01:27:03;13.30;99.90
2657;DHT22;1338;48.176;11.792;2023-05-29T01:29:35;13.40;99.90
2657;DHT22;1338;48.176;11.792;2023-05-29T01:32:06;13.20;99.90
2657;DHT22;1338;48.176;11.792;2023-05-29T01:34:34;13.40;99.90
2657;DHT22;1338;48.176;11.792;2023-05-29T01:37:03;13.50;99.90
2657;DHT22;1338;48.176;11.792;2023-05-29T01:39:32;13.00;99.90
2657;DHT22;1338;48.176;11.792;2023-05-29T01:42:02;13.50;99.90
2657;DHT22;1338;48.176;11.792;2023-05-29T01:44:34;13.70;99.90
2657;DHT22;1338;48.176;11.792;2023-05-29T01:47:05;13.50;99.90
2657;DHT22;1338;48.176;11.792;2023-05-29T01:49:34;13.20;99.90
2657;DHT22;1338;48.176;11.792;2023-05-29T01:52:05;13.50;99.90
2657;DHT22;1338;48.176;11.792;2023-05-29T01:54:33;13.30;99.90
2657;DHT22;1338;48.176;11.792;2023-05-29T01:57:03;13.50;99.90
2657;DHT22;1338;48.176;11.792;2023-05-29T01:59:33;13.40;99.90
2657;DHT22;1338;48.176;11.792;2023-05-29T02:02:06;12.90;99.90
2657;DHT22;1338;48.176;11.792;2023-05-29T02:04:36;11.70;99.90
2657;DHT22;1338;48.176;11.792;2023-05-29T02:07:05;12.60;99.90
2657;DHT22;1338;48.176;11.792;2023-05-29T02:09:34;12.70;99.90
2657;DHT22;1338;48.176;11.792;2023-05-29T02:12:05;12.10;99.90
2657;DHT22;1338;48.176;11.792;2023-05-29T02:14:34;12.90;99.90
2657;DHT22;1338;48.176;11.792;2023-05-29T02:17:02;13.30;99.90
2657;DHT22;1338;48.176;11.792;2023-05-29T02:19:31;12.90;99.90
2657;DHT22;1338;48.176;11.792;2023-05-29T02:22:00;13.30;99.90
2657;DHT22;1338;48.176;11.792;2023-05-29T02:24:28;13.20;99.90
2657;DHT22;1338;48.176;11.792;2023-05-29T02:26:56;13.00;99.90
2657;DHT22;1338;48.176;11.792;2023-05-29T02:29:26;13.20;99.90
2657;DHT22;1338;48.176;11.792;2023-05-29T02:31:54;11.90;99.90
2657;DHT22;1338;48.176;11.792;2023-05-29T02:34:22;11.90;99.90
2657;DHT22;1338;48.176;11.792;2023-05-29T02:36:51;12.30;99.90
2657;DHT22;1338;48.176;11.792;2023-05-29T02:39:20;12.50;99.90
2657;DHT22;1338;48.176;11.792;2023-05-29T02:41:48;13.00;99.90
2657;DHT22;1338;48.176;11.792;2023-05-29T02:44:16;13.10;99.90
2657;DHT22;1338;48.176;11.792;2023-05-29T02:46:46;13.10;99.90
2657;DHT22;1338;48.176;11.792;2023-05-29T02:49:17;13.00;99.90
2657;DHT22;1338;48.176;11.792;2023-05-29T02:51:45;12.60;99.90
2657;DHT22;1338;48.176;11.792;2023-05-29T02:54:14;11.30;99.90
2657;DHT22;1338;48.176;11.792;2023-05-29T02:56:42;11.00;99.90
2657;DHT22;1338;48.176;11.792;2023-05-29T02:59:10;10.20;99.90
2657;DHT22;1338;48.176;11.792;2023-05-29T03:01:38;10.50;1.00
2657;DHT22;1338;48.176;11.792;2023-05-29T03:04:08;11.60;1.00
2657;DHT22;1338;48.176;11.792;2023-05-29T03:06:37;12.50;99.90
2657;DHT22;1338;48.176;11.792;2023-05-29T03:09:06;13.00;99.90
2657;DHT22;1338;48.176;11.792;2023-05-29T03:11:34;13.00;99.90
2657;DHT22;1338;48.176;11.792;2023-05-29T03:14:04;12.20;99.90
2657;DHT22;1338;48.176;11.792;2023-05-29T03:16:33;12.00;99.90
2657;DHT22;1338;48.176;11.792;2023-05-29T03:19:03;12.60;99.90
2657;DHT22;1338;48.176;11.792;2023-05-29T03:21:33;12.30;99.90
2657;DHT22;1338;48.176;11.792;2023-05-29T03:24:06;11.90;99.90
2657;DHT22;1338;48.176;11.792;2023-05-29T03:26:38;12.30;99.90
2657;DHT22;1338;48.176;11.792;2023-05-29T03:29:06;12.80;99.90
2657;DHT22;1338;48.176;11.792;2023-05-29T03:31:36;12.40;99.90
2657;DHT22;1338;48.176;11.792;2023-05-29T03:34:04;12.80;99.90
2657;DHT22;1338;48.176;11.792;2023-05-29T03:36:41;12.70;99.90
2657;DHT22;1338;48.176;11.792;2023-05-29T03:39:10;12.90;99.90
2657;DHT22;1338;48.176;11.792;2023-05-29T03:41:39;13.10;99.90
2657;DHT22;1338;48.176;11.792;2023-05-29T03:44:09;12.70;99.90
2657;DHT22;1338;48.176;11.792;2023-05-29T03:46:38;12.70;99.90
2657;DHT22;1338;48.176;11.792;2023-05-29T03:49:06;12.90;99.90
2657;DHT22;1338;48.176;11.792;2023-05-29T03:51:36;12.50;99.90
2657;DHT22;1338;48.176;11.792;2023-05-29T03:54:06;12.80;99.90
2657;DHT22;1338;48.176;11.792;2023-05-29T03:56:34;12.60;99.90
2657;DHT22;1338;48.176;11.792;2023-05-29T03:59:04;12.90;99.90
2657;DHT22;1338;48.176;11.792;2023-05-29T04:01:32;13.00;99.90
2657;DHT22;1338;48.176;11.792;2023-05-29T04:04:01;13.10;99.90
2657;DHT22;1338;48.176;11.792;2023-05-29T04:06:29;13.00;99.90
2657;DHT22;1338;48.176;11.792;2023-05-29T04:08:58;12.00;99.90
2657;DHT22;1338;48.176;11.792;2023-05-29T04:11:30;11.30;99.90
2657;DHT22;1338;48.176;11.792;2023-05-29T04:14:01;13.20;99.90
2657;DHT22;1338;48.176;11.792;2023-05-29T04:16:29;13.30;99.90
2657;DHT22;1338;48.176;11.792;2023-05-29T04:18:58;13.40;99.90
2657;DHT22;1338;48.176;11.792;2023-05-29T04:21:28;13.20;99.90
2657;DHT22;1338;48.176;11.792;2023-05-29T04:24:00;13.30;99.90
2657;DHT22;1338;48.176;11.792;2023-05-29T04:26:29;13.10;99.90
2657;DHT22;1338;48.176;11.792;2023-05-29T04:29:00;13.40;99.90
2657;DHT22;1338;48.176;11.792;2023-05-29T04:31:30;11.50;99.90
2657;DHT22;1338;48.176;11.792;2023-05-29T04:33:59;11.60;1.00
2657;DHT22;1338;48.176;11.792;2023-05-29T04:36:31;11.90;99.90
2657;DHT22;1338;48.176;11.792;2023-05-29T04:39:07;12.10;99.90
2657;DHT22;1338;48.176;11.792;2023-05-29T04:41:37;12.20;99.90
2657;DHT22;1338;48.176;11.792;2023-05-29T04:44:14;13.20;99.90
2657;DHT22;1338;48.176;11.792;2023-05-29T04:46:46;13.70;99.90
2657;DHT22;1338;48.176;11.792;2023-05-29T04:49:15;14.10;99.90
2657;DHT22;1338;48.176;11.792;2023-05-29T04:51:43;14.20;99.90
2657;DHT22;1338;48.176;11.792;2023-05-29T04:54:13;14.30;99.90
2657;DHT22;1338;48.176;11.792;2023-05-29T04:56:42;13.90;99.90
2657;DHT22;1338;48.176;11.792;2023-05-29T04:59:13;13.80;99.90
2657;DHT22;1338;48.176;11.792;2023-05-29T05:01:41;13.30;99.90
2657;DHT22;1338;48.176;11.792;2023-05-29T05:04:13;13.70;99.90
2657;DHT22;1338;48.176;11.792;2023-05-29T05:06:43;13.40;99.90
2657;DHT22;1338;48.176;11.792;2023-05-29T05:09:11;13.30;99.90
2657;DHT22;1338;48.176;11.792;2023-05-29T05:11:41;12.70;99.90
2657;DHT22;1338;48.176;11.792;2023-05-29T05:14:10;13.20;99.90
2657;DHT22;1338;48.176;11.792;2023-05-29T05:16:38;13.00;99.90
2657;DHT22;1338;48.176;11.792;2023-05-29T05:19:07;13.20;99.90
2657;DHT22;1338;48.176;11.792;2023-05-29T05:21:38;12.70;99.90
2657;DHT22;1338;48.176;11.792;2023-05-29T05:24:07;12.10;99.90
2657;DHT22;1338;48.176;11.792;2023-05-29T05:26:38;12.60;99.90
2657;DHT22;1338;48.176;11.792;2023-05-29T05:29:08;12.50;99.90
2657;DHT22;1338;48.176;11.792;2023-05-29T05:31:39;12.70;99.90
2657;DHT22;1338;48.176;11.792;2023-05-29T05:34:08;13.00;99.90
2657;DHT22;1338;48.176;11.792;2023-05-29T05:36:36;12.50;99.90
2657;DHT22;1338;48.176;11.792;2023-05-29T05:39:10;12.90;99.90
2657;DHT22;1338;48.176;11.792;2023-05-29T05:41:38;13.00;99.90
2657;DHT22;1338;48.176;11.792;2023-05-29T05:44:08;12.70;99.90
2657;DHT22;1338;48.176;11.792;2023-05-29T05:46:43;13.10;99.90
2657;DHT22;1338;48.176;11.792;2023-05-29T05:49:13;13.70;99.90
2657;DHT22;1338;48.176;11.792;2023-05-29T05:51:41;13.90;99.90
2657;DHT22;1338;48.176;11.792;2023-05-29T05:54:10;14.40;99.90
2657;DHT22;1338;48.176;11.792;2023-05-29T05:56:39;14.60;99.90
2657;DHT22;1338;48.176;11.792;2023-05-29T05:59:10;14.60;99.90
2657;DHT22;1338;48.176;11.792;2023-05-29T06:01:39;14.90;99.90
2657;DHT22;1338;48.176;11.792;2023-05-29T06:04:09;15.40;99.90
2657;DHT22;1338;48.176;11.792;2023-05-29T06:06:37;15.30;99.90
2657;DHT22;1338;48.176;11.792;2023-05-29T06:09:07;15.30;99.90
2657;DHT22;1338;48.176;11.792;2023-05-29T06:11:36;14.90;99.90
2657;DHT22;1338;48.176;11.792;2023-05-29T06:14:05;15.30;99.90
2657;DHT22;1338;48.176;11.792;2023-05-29T06:16:35;15.30;99.90
2657;DHT22;1338;48.176;11.792;2023-05-29T06:19:03;15.10;99.90
2657;DHT22;1338;48.176;11.792;2023-05-29T06:21:40;15.00;99.90
2657;DHT22;1338;48.176;11.792;2023-05-29T06:24:10;14.50;99.90
2657;DHT22;1338;48.176;11.792;2023-05-29T06:26:39;14.70;99.90
2657;DHT22;1338;48.176;11.792;2023-05-29T06:29:10;14.80;99.90
2657;DHT22;1338;48.176;11.792;2023-05-29T06:31:40;14.70;99.90
2657;DHT22;1338;48.176;11.792;2023-05-29T06:34:08;14.80;99.90
2657;DHT22;1338;48.176;11.792;2023-05-29T06:36:37;15.50;99.90
2657;DHT22;1338;48.176;11.792;2023-05-29T06:39:05;15.40;99.90
2657;DHT22;1338;48.176;11.792;2023-05-29T06:41:33;15.30;99.90
2657;DHT22;1338;48.176;11.792;2023-05-29T06:44:02;15.70;99.90
2657;DHT22;1338;48.176;11.792;2023-05-29T06:46:31;16.00;99.90
2657;DHT22;1338;48.176;11.792;2023-05-29T06:49:02;15.70;99.90
2657;DHT22;1338;48.176;11.792;2023-05-29T06:51:33;15.60;99.90
2657;DHT22;1338;48.176;11.792;2023-05-29T06:54:20;16.00;99.90
2657;DHT22;1338;48.176;11.792;2023-05-29T06:56:49;16.10;99.90
2657;DHT22;1338;48.176;11.792;2023-05-29T06:59:36;15.80;99.90
2657;DHT22;1338;48.176;11.792;2023-05-29T07:02:05;15.80;99.90
2657;DHT22;1338;48.176;11.792;2023-05-29T07:04:42;15.90;99.90
2657;DHT22;1338;48.176;11.792;2023-05-29T07:07:12;16.10;99.90
2657;DHT22;1338;48.176;11.792;2023-05-29T07:09:40;16.40;99.90
2657;DHT22;1338;48.176;11.792;2023-05-29T07:12:09;16.20;99.90
2657;DHT22;1338;48.176;11.792;2023-05-29T07:14:37;16.40;99.90
2657;DHT22;1338;48.176;11.792;2023-05-29T07:17:06;16.30;99.90
2657;DHT22;1338;48.176;11.792;2023-05-29T07:19:35;16.30;99.90
2657;DHT22;1338;48.176;11.792;2023-05-29T07:22:06;16.70;99.90
2657;DHT22;1338;48.176;11.792;2023-05-29T07:24:35;16.80;99.90
2657;DHT22;1338;48.176;11.792;2023-05-29T07:27:05;16.90;99.90
2657;DHT22;1338;48.176;11.792;2023-05-29T07:29:34;16.90;99.90
2657;DHT22;1338;48.176;11.792;2023-05-29T07:32:02;16.80;99.90
2657;DHT22;1338;48.176;11.792;2023-05-29T07:34:31;17.00;99.90
2657;DHT22;1338;48.176;11.792;2023-05-29T07:37:01;17.30;99.90
2657;DHT22;1338;48.176;11.792;2023-05-29T07:39:35;17.20;99.90
2657;DHT22;1338;48.176;11.792;2023-05-29T07:42:12;17.20;99.90
2657;DHT22;1338;48.176;11.792;2023-05-29T07:44:44;17.60;99.90
2657;DHT22;1338;48.176;11.792;2023-05-29T07:47:13;17.60;99.90
2657;DHT22;1338;48.176;11.792;2023-05-29T07:49:45;17.60;99.90
2657;DHT22;1338;48.176;11.792;2023-05-29T07:52:14;17.60;99.90
2657;DHT22;1338;48.176;11.792;2023-05-29T07:54:44;17.90;99.90
2657;DHT22;1338;48.176;11.792;2023-05-29T07:57:13;17.60;99.90
2657;DHT22;1338;48.176;11.792;2023-05-29T07:59:43;17.80;99.90
2657;DHT22;1338;48.176;11.792;2023-05-29T08:02:12;17.80;99.90
2657;DHT22;1338;48.176;11.792;2023-05-29T08:05:09;17.90;99.90
2657;DHT22;1338;48.176;11.792;2023-05-29T08:07:37;18.00;99.90
2657;DHT22;1338;48.176;11.792;2023-05-29T08:10:08;18.10;99.90
2657;DHT22;1338;48.176;11.792;2023-05-29T08:12:36;18.20;99.60
2657;DHT22;1338;48.176;11.792;2023-05-29T08:15:05;18.10;99.20
2657;DHT22;1338;48.176;11.792;2023-05-29T08:17:36;18.50;99.90
2657;DHT22;1338;48.176;11.792;2023-05-29T08:20:05;18.60;98.20
2657;DHT22;1338;48.176;11.792;2023-05-29T08:22:34;18.50;95.90
2657;DHT22;1338;48.176;11.792;2023-05-29T08:25:03;18.70;95.50
2657;DHT22;1338;48.176;11.792;2023-05-29T08:27:32;18.50;94.40
2657;DHT22;1338;48.176;11.792;2023-05-29T08:30:00;18.90;93.80
2657;DHT22;1338;48.176;11.792;2023-05-29T08:32:29;19.00;93.90
2657;DHT22;1338;48.176;11.792;2023-05-29T08:34:57;19.00;85.70
2657;DHT22;1338;48.176;11.792;2023-05-29T08:37:25;19.10;83.20
2657;DHT22;1338;48.176;11.792;2023-05-29T08:39:53;19.10;89.50
2657;DHT22;1338;48.176;11.792;2023-05-29T08:42:26;19.40;78.60
2657;DHT22;1338;48.176;11.792;2023-05-29T08:45:03;19.50;66.80
2657;DHT22;1338;48.176;11.792;2023-05-29T08:47:33;19.40;66.40
2657;DHT22;1338;48.176;11.792;2023-05-29T08:50:06;19.50;74.10
2657;DHT22;1338;48.176;11.792;2023-05-29T08:52:35;19.60;62.30
2657;DHT22;1338;48.176;11.792;2023-05-29T08:55:06;19.70;56.80
2657;DHT22;1338;48.176;11.792;2023-05-29T08:57:36;19.80;51.60
2657;DHT22;1338;48.176;11.792;2023-05-29T09:00:09;19.80;49.70
2657;DHT22;1338;48.176;11.792;2023-05-29T09:02:40;20.10;43.60
2657;DHT22;1338;48.176;11.792;2023-05-29T09:05:11;20.10;40.90
2657;DHT22;1338;48.176;11.792;2023-05-29T09:07:39;19.90;40.30
2657;DHT22;1338;48.176;11.792;2023-05-29T09:10:09;20.30;34.60
2657;DHT22;1338;48.176;11.792;2023-05-29T09:12:38;20.00;32.50
2657;DHT22;1338;48.176;11.792;2023-05-29T09:15:17;20.70;28.50
2657;DHT22;1338;48.176;11.792;2023-05-29T09:17:50;20.60;15.60
2657;DHT22;1338;48.176;11.792;2023-05-29T09:20:20;20.40;14.30
2657;DHT22;1338;48.176;11.792;2023-05-29T09:22:55;20.80;12.00
2657;DHT22;1338;48.176;11.792;2023-05-29T09:25:26;20.90;4.40
2657;DHT22;1338;48.176;11.792;2023-05-29T09:27:57;20.60;6.80
2657;DHT22;1338;48.176;11.792;2023-05-29T09:30:36;21.30;1.00
2657;DHT22;1338;48.176;11.792;2023-05-29T09:33:07;21.00;1.00
2657;DHT22;1338;48.176;11.792;2023-05-29T09:35:37;21.20;1.00
2657;DHT22;1338;48.176;11.792;2023-05-29T09:38:07;20.90;1.00
2657;DHT22;1338;48.176;11.792;2023-05-29T09:40:37;21.00;1.00
2657;DHT22;1338;48.176;11.792;2023-05-29T09:43:08;21.10;1.00
2657;DHT22;1338;48.176;11.792;2023-05-29T09:45:40;21.50;1.00
2657;DHT22;1338;48.176;11.792;2023-05-29T09:48:13;21.50;1.00
2657;DHT22;1338;48.176;11.792;2023-05-29T09:50:43;21.80;1.00
2657;DHT22;1338;48.176;11.792;2023-05-29T09:53:19;22.00;1.00
2657;DHT22;1338;48.176;11.792;2023-05-29T09:55:49;21.90;1.00
2657;DHT22;1338;48.176;11.792;2023-05-29T09:58:19;22.10;1.00
2657;DHT22;1338;48.176;11.792;2023-05-29T10:00:50;22.30;1.00
2657;DHT22;1338;48.176;11.792;2023-05-29T10:03:19;22.40;1.00
2657;DHT22;1338;48.176;11.792;2023-05-29T10:05:54;22.30;1.00
2657;DHT22;1338;48.176;11.792;2023-05-29T10:08:25;22.30;1.00
2657;DHT22;1338;48.176;11.792;2023-05-29T10:10:58;22.30;1.00
2657;DHT22;1338;48.176;11.792;2023-05-29T10:13:30;21.70;1.00
2657;DHT22;1338;48.176;11.792;2023-05-29T10:16:07;22.30;1.00
2657;DHT22;1338;48.176;11.792;2023-05-29T10:18:38;22.60;1.00
2657;DHT22;1338;48.176;11.792;2023-05-29T10:21:09;22.70;1.00
2657;DHT22;1338;48.176;11.792;2023-05-29T10:23:45;22.40;1.00
2657;DHT22;1338;48.176;11.792;2023-05-29T10:26:18;22.80;1.00
2657;DHT22;1338;48.176;11.792;2023-05-29T10:28:55;23.10;1.00
2657;DHT22;1338;48.176;11.792;2023-05-29T10:31:33;23.00;1.00
2657;DHT22;1338;48.176;11.792;2023-05-29T10:34:14;22.90;1.00
2657;DHT22;1338;48.176;11.792;2023-05-29T10:36:54;23.10;1.00
2657;DHT22;1338;48.176;11.792;2023-05-29T10:39:24;23.00;1.00
2657;DHT22;1338;48.176;11.792;2023-05-29T10:41:52;23.10;1.00
2657;DHT22;1338;48.176;11.792;2023-05-29T10:44:46;23.30;1.00
2657;DHT22;1338;48.176;11.792;2023-05-29T10:47:22;23.20;1.00
2657;DHT22;1338;48.176;11.792;2023-05-29T10:49:52;23.30;1.00
2657;DHT22;1338;48.176;11.792;2023-05-29T10:52:20;23.70;1.00
2657;DHT22;1338;48.176;11.792;2023-05-29T10:54:52;23.40;1.00
2657;DHT22;1338;48.176;11.792;2023-05-29T10:57:22;23.70;1.00
2657;DHT22;1338;48.176;11.792;2023-05-29T11:00:06;24.20;1.00
2657;DHT22;1338;48.176;11.792;2023-05-29T11:02:41;24.00;1.00
2657;DHT22;1338;48.176;11.792;2023-05-29T11:05:19;23.50;1.00
2657;DHT22;1338;48.176;11.792;2023-05-29T11:07:59;24.00;1.00
2657;DHT22;1338;48.176;11.792;2023-05-29T11:10:43;24.10;1.00
2657;DHT22;1338;48.176;11.792;2023-05-29T11:13:23;23.80;1.00
2657;DHT22;1338;48.176;11.792;2023-05-29T11:16:13;23.80;1.00
2657;DHT22;1338;48.176;11.792;2023-05-29T11:18:45;24.00;1.00
2657;DHT22;1338;48.176;11.792;2023-05-29T11:21:29;25.00;1.00
2657;DHT22;1338;48.176;11.792;2023-05-29T11:24:00;25.10;1.00
2657;DHT22;1338;48.176;11.792;2023-05-29T11:26:37;24.50;1.00
2657;DHT22;1338;48.176;11.792;2023-05-29T11:29:06;24.70;1.00
2657;DHT22;1338;48.176;11.792;2023-05-29T11:31:39;25.00;1.00
2657;DHT22;1338;48.176;11.792;2023-05-29T11:34:15;24.80;1.00
2657;DHT22;1338;48.176;11.792;2023-05-29T11:36:44;24.60;1.00
2657;DHT22;1338;48.176;11.792;2023-05-29T11:39:16;25.10;1.00
2657;DHT22;1338;48.176;11.792;2023-05-29T11:41:45;25.80;1.00
2657;DHT22;1338;48.176;11.792;2023-05-29T11:44:18;25.50;1.00
2657;DHT22;1338;48.176;11.792;2023-05-29T11:46:47;24.90;1.00
2657;DHT22;1338;48.176;11.792;2023-05-29T11:49:27;24.80;1.00
2657;DHT22;1338;48.176;11.792;2023-05-29T11:52:06;23.80;1.00
2657;DHT22;1338;48.176;11.792;2023-05-29T11:54:42;24.60;1.00
2657;DHT22;1338;48.176;11.792;2023-05-29T11:57:19;24.80;1.00
2657;DHT22;1338;48.176;11.792;2023-05-29T11:59:49;25.20;1.00
2657;DHT22;1338;48.176;11.792;2023-05-29T12:02:20;25.30;1.00
2657;DHT22;1338;48.176;11.792;2023-05-29T12:05:01;26.00;1.00
2657;DHT22;1338;48.176;11.792;2023-05-29T12:07:30;25.90;1.00
2657;DHT22;1338;48.176;11.792;2023-05-29T12:10:09;25.70;1.00
2657;DHT22;1338;48.176;11.792;2023-05-29T12:12:37;26.00;1.00
2657;DHT22;1338;48.176;11.792;2023-05-29T12:15:07;25.70;1.00
2657;DHT22;1338;48.176;11.792;2023-05-29T12:17:38;25.70;1.00
2657;DHT22;1338;48.176;11.792;2023-05-29T12:20:10;26.70;1.00
2657;DHT22;1338;48.176;11.792;2023-05-29T12:22:41;26.10;1.00
2657;DHT22;1338;48.176;11.792;2023-05-29T12:25:11;26.00;1.00
2657;DHT22;1338;48.176;11.792;2023-05-29T12:27:41;25.90;1.00
2657;DHT22;1338;48.176;11.792;2023-05-29T12:30:12;26.30;1.00
2657;DHT22;1338;48.176;11.792;2023-05-29T12:32:59;26.50;1.00
2657;DHT22;1338;48.176;11.792;2023-05-29T12:35:31;26.50;1.00
2657;DHT22;1338;48.176;11.792;2023-05-29T12:38:01;26.20;1.00
2657;DHT22;1338;48.176;11.792;2023-05-29T12:40:32;26.00;1.00
2657;DHT22;1338;48.176;11.792;2023-05-29T12:43:04;26.40;1.00
2657;DHT22;1338;48.176;11.792;2023-05-29T12:45:34;26.80;1.00
2657;DHT22;1338;48.176;11.792;2023-05-29T12:48:04;27.70;1.00
2657;DHT22;1338;48.176;11.792;2023-05-29T12:50:37;26.40;1.00
2657;DHT22;1338;48.176;11.792;2023-05-29T12:53:07;26.80;1.00
2657;DHT22;1338;48.176;11.792;2023-05-29T12:55:37;28.10;1.00
2657;DHT22;1338;48.176;11.792;2023-05-29T12:58:06;27.40;1.00
2657;DHT22;1338;48.176;11.792;2023-05-29T13:00:36;27.80;1.00
2657;DHT22;1338;48.176;11.792;2023-05-29T13:03:05;27.30;1.00
2657;DHT22;1338;48.176;11.792;2023-05-29T13:05:36;27.00;1.00
2657;DHT22;1338;48.176;11.792;2023-05-29T13:08:06;28.90;1.00
2657;DHT22;1338;48.176;11.792;2023-05-29T13:10:36;27.70;1.00
2657;DHT22;1338;48.176;11.792;2023-05-29T13:13:05;27.60;1.00
2657;DHT22;1338;48.176;11.792;2023-05-29T13:15:33;27.00;1.00
2657;DHT22;1338;48.176;11.792;2023-05-29T13:18:02;26.80;1.00
2657;DHT22;1338;48.176;11.792;2023-05-29T13:20:31;27.60;1.00
2657;DHT22;1338;48.176;11.792;2023-05-29T13:23:02;26.60;1.00
2657;DHT22;1338;48.176;11.792;2023-05-29T13:25:30;27.10;1.00
2657;DHT22;1338;48.176;11.792;2023-05-29T13:27:59;27.50;1.00
2657;DHT22;1338;48.176;11.792;2023-05-29T13:30:27;29.20;1.00
2657;DHT22;1338;48.176;11.792;2023-05-29T13:32:56;28.70;1.00
2657;DHT22;1338;48.176;11.792;2023-05-29T13:35:25;28.40;1.00
2657;DHT22;1338;48.176;11.792;2023-05-29T13:37:54;29.00;1.00
2657;DHT22;1338;48.176;11.792;2023-05-29T13:40:24;28.30;1.00
2657;DHT22;1338;48.176;11.792;2023-05-29T13:42:53;27.90;1.00
2657;DHT22;1338;48.176;11.792;2023-05-29T13:45:22;27.50;1.00
2657;DHT22;1338;48.176;11.792;2023-05-29T13:47:50;29.10;1.00
2657;DHT22;1338;48.176;11.792;2023-05-29T13:50:19;29.50;1.00
2657;DHT22;1338;48.176;11.792;2023-05-29T13:52:49;29.30;1.00
2657;DHT22;1338;48.176;11.792;2023-05-29T13:55:18;29.20;1.00
2657;DHT22;1338;48.176;11.792;2023-05-29T13:57:48;28.80;1.00
2657;DHT22;1338;48.176;11.792;2023-05-29T14:00:17;29.60;1.00
2657;DHT22;1338;48.176;11.792;2023-05-29T14:02:47;28.70;1.00
2657;DHT22;1338;48.176;11.792;2023-05-29T14:05:16;27.70;1.00
2657;DHT22;1338;48.176;11.792;2023-05-29T14:07:44;27.40;1.00
2657;DHT22;1338;48.176;11.792;2023-05-29T14:10:13;28.10;1.00
2657;DHT22;1338;48.176;11.792;2023-05-29T14:12:42;27.50;1.00
2657;DHT22;1338;48.176;11.792;2023-05-29T14:15:12;28.20;1.00
2657;DHT22;1338;48.176;11.792;2023-05-29T14:17:41;27.40;1.00
2657;DHT22;1338;48.176;11.792;2023-05-29T14:20:10;29.10;1.00
2657;DHT22;1338;48.176;11.792;2023-05-29T14:22:38;28.30;1.00
2657;DHT22;1338;48.176;11.792;2023-05-29T14:25:08;28.70;1.00
2657;DHT22;1338;48.176;11.792;2023-05-29T14:27:37;28.50;1.00
2657;DHT22;1338;48.176;11.792;2023-05-29T14:30:07;27.90;1.00
2657;DHT22;1338;48.176;11.792;2023-05-29T14:32:37;27.70;1.00
2657;DHT22;1338;48.176;11.792;2023-05-29T14:35:06;28.10;1.00
2657;DHT22;1338;48.176;11.792;2023-05-29T14:37:34;30.20;1.00
2657;DHT22;1338;48.176;11.792;2023-05-29T14:40:07;29.10;1.00
2657;DHT22;1338;48.176;11.792;2023-05-29T14:42:36;28.90;1.00
2657;DHT22;1338;48.176;11.792;2023-05-29T14:45:06;27.90;1.00
2657;DHT22;1338;48.176;11.792;2023-05-29T14:47:39;28.50;1.00
2657;DHT22;1338;48.176;11.792;2023-05-29T14:50:08;29.40;1.00
2657;DHT22;1338;48.176;11.792;2023-05-29T14:52:37;29.10;1.00
2657;DHT22;1338;48.176;11.792;2023-05-29T14:55:06;28.80;1.00
2657;DHT22;1338;48.176;11.792;2023-05-29T14:57:34;29.40;1.00
2657;DHT22;1338;48.176;11.792;2023-05-29T15:00:04;29.10;1.00
2657;DHT22;1338;48.176;11.792;2023-05-29T15:02:33;29.20;1.00
2657;DHT22;1338;48.176;11.792;2023-05-29T15:05:05;30.20;1.00
2657;DHT22;1338;48.176;11.792;2023-05-29T15:07:34;28.90;1.00
2657;DHT22;1338;48.176;11.792;2023-05-29T15:10:03;29.00;1.00
2657;DHT22;1338;48.176;11.792;2023-05-29T15:12:33;30.00;1.00
2657;DHT22;1338;48.176;11.792;2023-05-29T15:15:03;30.50;1.00
2657;DHT22;1338;48.176;11.792;2023-05-29T15:17:32;30.20;1.00
2657;DHT22;1338;48.176;11.792;2023-05-29T15:20:04;28.60;1.00
2657;DHT22;1338;48.176;11.792;2023-05-29T15:22:33;28.60;1.00
2657;DHT22;1338;48.176;11.792;2023-05-29T15:25:02;28.60;1.00
2657;DHT22;1338;48.176;11.792;2023-05-29T15:27:31;29.10;1.00
2657;DHT22;1338;48.176;11.792;2023-05-29T15:30:11;29.30;1.00
2657;DHT22;1338;48.176;11.792;2023-05-29T15:32:41;29.20;1.00
2657;DHT22;1338;48.176;11.792;2023-05-29T15:35:14;29.50;1.00
2657;DHT22;1338;48.176;11.792;2023-05-29T15:37:43;29.70;1.00
2657;DHT22;1338;48.176;11.792;2023-05-29T15:40:13;30.00;1.00
2657;DHT22;1338;48.176;11.792;2023-05-29T15:42:42;29.60;1.00
2657;DHT22;1338;48.176;11.792;2023-05-29T15:45:10;28.40;1.00
2657;DHT22;1338;48.176;11.792;2023-05-29T15:47:41;29.50;1.00
2657;DHT22;1338;48.176;11.792;2023-05-29T15:50:11;29.50;1.00
2657;DHT22;1338;48.176;11.792;2023-05-29T15:52:41;29.40;1.00
2657;DHT22;1338;48.176;11.792;2023-05-29T15:55:21;29.60;1.00
2657;DHT22;1338;48.176;11.792;2023-05-29T15:57:50;29.40;1.00
2657;DHT22;1338;48.176;11.792;2023-05-29T16:00:20;29.90;1.00
2657;DHT22;1338;48.176;11.792;2023-05-29T16:02:49;30.00;1.00
2657;DHT22;1338;48.176;11.792;2023-05-29T16:05:18;30.90;1.00
2657;DHT22;1338;48.176;11.792;2023-05-29T16:07:49;30.30;1.00
2657;DHT22;1338;48.176;11.792;2023-05-29T16:10:18;30.80;1.00
2657;DHT22;1338;48.176;11.792;2023-05-29T16:12:47;29.90;1.00
2657;DHT22;1338;48.176;11.792;2023-05-29T16:15:18;30.60;1.00